sensor_id;sensor_type;location;lat;lon;timestamp;P1;durP1;ratioP1;P2;durP2;ratioP2
4174;SDS011;2101;48.290;14.382;2022-10-28T00:00:38;19.93;;;3.70;;
4174;SDS011;2101;48.290;14.382;2022-10-28T00:03:10;17.83;;;3.30;;
4174;SDS011;2101;48.290;14.382;2022-10-28T00:06:06;29.40;;;3.43;;
4174;SDS011;2101;48.290;14.382;2022-10-28T00:08:40;21.20;;;4.23;;
4174;SDS011;2101;48.290;14.382;2022-10-28T00:14:09;23.60;;;4.00;;
4174;SDS011;2101;48.290;14.382;2022-10-28T00:16:54;18.77;;;3.60;;
4174;SDS011;2101;48.290;14.382;2022-10-28T00:19:25;30.30;;;6.60;;
4174;SDS011;2101;48.290;14.382;2022-10-28T00:21:56;33.47;;;6.73;;
4174;SDS011;2101;48.290;14.382;2022-10-28T00:24:23;31.50;;;9.20;;
4174;SDS011;2101;48.290;14.382;2022-10-28T00:26:51;42.77;;;12.20;;
4174;SDS011;2101;48.290;14.382;2022-10-28T00:29:20;29.10;;;7.13;;
4174;SDS011;2101;48.290;14.382;2022-10-28T00:38:06;22.80;;;4.20;;
4174;SDS011;2101;48.290;14.382;2022-10-28T00:43:33;25.00;;;4.73;;
4174;SDS011;2101;48.290;14.382;2022-10-28T00:46:00;28.90;;;5.00;;
4174;SDS011;2101;48.290;14.382;2022-10-28T00:48:26;25.23;;;5.17;;
4174;SDS011;2101;48.290;14.382;2022-10-28T00:50:53;21.17;;;4.27;;
4174;SDS011;2101;48.290;14.382;2022-10-28T00:53:20;22.00;;;4.03;;
4174;SDS011;2101;48.290;14.382;2022-10-28T00:55:47;18.93;;;3.20;;
4174;SDS011;2101;48.290;14.382;2022-10-28T00:58:14;18.20;;;3.30;;
4174;SDS011;2101;48.290;14.382;2022-10-28T01:00:40;22.00;;;3.60;;
4174;SDS011;2101;48.290;14.382;2022-10-28T01:03:06;20.87;;;3.60;;
4174;SDS011;2101;48.290;14.382;2022-10-28T01:05:35;24.23;;;4.77;;
4174;SDS011;2101;48.290;14.382;2022-10-28T01:08:03;25.93;;;3.93;;
4174;SDS011;2101;48.290;14.382;2022-10-28T01:10:36;21.77;;;3.87;;
4174;SDS011;2101;48.290;14.382;2022-10-28T01:13:10;20.30;;;4.00;;
4174;SDS011;2101;48.290;14.382;2022-10-28T01:15:50;23.30;;;4.53;;
4174;SDS011;2101;48.290;14.382;2022-10-28T01:18:27;17.10;;;3.57;;
4174;SDS011;2101;48.290;14.382;2022-10-28T01:21:06;17.10;;;3.50;;
4174;SDS011;2101;48.290;14.382;2022-10-28T01:32:15;21.30;;;3.90;;
4174;SDS011;2101;48.290;14.382;2022-10-28T01:44:40;17.33;;;3.20;;
4174;SDS011;2101;48.290;14.382;2022-10-28T01:47:13;18.33;;;3.63;;
4174;SDS011;2101;48.290;14.382;2022-10-28T01:49:48;21.37;;;3.53;;
4174;SDS011;2101;48.290;14.382;2022-10-28T01:52:18;26.30;;;4.23;;
4174;SDS011;2101;48.290;14.382;2022-10-28T01:54:46;28.13;;;4.00;;
4174;SDS011;2101;48.290;14.382;2022-10-28T01:57:13;18.47;;;3.90;;
4174;SDS011;2101;48.290;14.382;2022-10-28T01:59:40;16.97;;;3.50;;
4174;SDS011;2101;48.290;14.382;2022-10-28T02:02:08;18.13;;;3.33;;
4174;SDS011;2101;48.290;14.382;2022-10-28T02:04:34;18.83;;;3.37;;
4174;SDS011;2101;48.290;14.382;2022-10-28T02:07:00;18.17;;;2.97;;
4174;SDS011;2101;48.290;14.382;2022-10-28T02:09:33;26.10;;;3.37;;
4174;SDS011;2101;48.290;14.382;2022-10-28T02:14:57;20.10;;;3.20;;
4174;SDS011;2101;48.290;14.382;2022-10-28T02:17:20;18.53;;;3.23;;
4174;SDS011;2101;48.290;14.382;2022-10-28T02:22:29;18.00;;;3.00;;
4174;SDS011;2101;48.290;14.382;2022-10-28T02:30:17;21.90;;;3.73;;
4174;SDS011;2101;48.290;14.382;2022-10-28T02:32:42;25.47;;;4.47;;
4174;SDS011;2101;48.290;14.382;2022-10-28T02:35:13;22.23;;;3.43;;
4174;SDS011;2101;48.290;14.382;2022-10-28T02:37:41;20.10;;;3.70;;
4174;SDS011;2101;48.290;14.382;2022-10-28T02:40:11;19.43;;;3.83;;
4174;SDS011;2101;48.290;14.382;2022-10-28T02:42:40;18.63;;;3.43;;
4174;SDS011;2101;48.290;14.382;2022-10-28T02:45:10;22.30;;;4.07;;
4174;SDS011;2101;48.290;14.382;2022-10-28T02:47:38;24.80;;;3.60;;
4174;SDS011;2101;48.290;14.382;2022-10-28T02:50:06;45.40;;;4.60;;
4174;SDS011;2101;48.290;14.382;2022-10-28T02:52:35;20.43;;;4.10;;
4174;SDS011;2101;48.290;14.382;2022-10-28T02:55:03;23.00;;;3.27;;
4174;SDS011;2101;48.290;14.382;2022-10-28T02:57:33;19.77;;;3.23;;
4174;SDS011;2101;48.290;14.382;2022-10-28T03:00:06;17.40;;;3.27;;
4174;SDS011;2101;48.290;14.382;2022-10-28T03:02:32;17.17;;;3.10;;
4174;SDS011;2101;48.290;14.382;2022-10-28T03:04:58;20.47;;;3.00;;
4174;SDS011;2101;48.290;14.382;2022-10-28T03:07:24;25.93;;;2.67;;
4174;SDS011;2101;48.290;14.382;2022-10-28T03:09:51;17.83;;;2.90;;
4174;SDS011;2101;48.290;14.382;2022-10-28T03:12:17;17.33;;;3.03;;
4174;SDS011;2101;48.290;14.382;2022-10-28T03:14:43;18.07;;;2.90;;
4174;SDS011;2101;48.290;14.382;2022-10-28T03:17:09;21.60;;;3.33;;
4174;SDS011;2101;48.290;14.382;2022-10-28T03:19:35;17.57;;;3.07;;
4174;SDS011;2101;48.290;14.382;2022-10-28T03:22:01;17.07;;;3.50;;
4174;SDS011;2101;48.290;14.382;2022-10-28T03:24:27;21.93;;;3.23;;
4174;SDS011;2101;48.290;14.382;2022-10-28T03:26:53;21.33;;;3.63;;
4174;SDS011;2101;48.290;14.382;2022-10-28T03:29:20;19.07;;;3.37;;
4174;SDS011;2101;48.290;14.382;2022-10-28T03:31:46;21.23;;;3.90;;
4174;SDS011;2101;48.290;14.382;2022-10-28T03:34:12;157.07;;;7.97;;
4174;SDS011;2101;48.290;14.382;2022-10-28T03:36:39;48.07;;;4.87;;
4174;SDS011;2101;48.290;14.382;2022-10-28T03:39:05;21.03;;;3.20;;
4174;SDS011;2101;48.290;14.382;2022-10-28T03:41:31;24.23;;;4.10;;
4174;SDS011;2101;48.290;14.382;2022-10-28T03:43:57;20.97;;;3.40;;
4174;SDS011;2101;48.290;14.382;2022-10-28T03:46:23;210.60;;;8.10;;
4174;SDS011;2101;48.290;14.382;2022-10-28T03:48:49;18.23;;;3.57;;
4174;SDS011;2101;48.290;14.382;2022-10-28T03:51:15;29.03;;;3.70;;
4174;SDS011;2101;48.290;14.382;2022-10-28T03:53:41;24.37;;;3.47;;
4174;SDS011;2101;48.290;14.382;2022-10-28T03:56:08;17.00;;;3.10;;
4174;SDS011;2101;48.290;14.382;2022-10-28T03:58:34;19.20;;;4.03;;
4174;SDS011;2101;48.290;14.382;2022-10-28T04:01:00;255.03;;;10.20;;
4174;SDS011;2101;48.290;14.382;2022-10-28T04:03:26;335.43;;;11.30;;
4174;SDS011;2101;48.290;14.382;2022-10-28T04:05:52;540.43;;;18.00;;
4174;SDS011;2101;48.290;14.382;2022-10-28T04:08:18;352.43;;;11.07;;
4174;SDS011;2101;48.290;14.382;2022-10-28T04:10:44;520.50;;;17.07;;
4174;SDS011;2101;48.290;14.382;2022-10-28T04:13:10;798.33;;;27.43;;
4174;SDS011;2101;48.290;14.382;2022-10-28T04:15:37;421.00;;;13.03;;
4174;SDS011;2101;48.290;14.382;2022-10-28T04:18:03;597.90;;;16.93;;
4174;SDS011;2101;48.290;14.382;2022-10-28T04:20:30;405.63;;;14.33;;
4174;SDS011;2101;48.290;14.382;2022-10-28T04:22:56;275.10;;;13.70;;
4174;SDS011;2101;48.290;14.382;2022-10-28T04:25:22;326.77;;;13.93;;
4174;SDS011;2101;48.290;14.382;2022-10-28T04:27:49;363.73;;;16.03;;
4174;SDS011;2101;48.290;14.382;2022-10-28T04:30:15;330.10;;;13.60;;
4174;SDS011;2101;48.290;14.382;2022-10-28T04:32:42;248.73;;;9.60;;
4174;SDS011;2101;48.290;14.382;2022-10-28T04:35:09;545.07;;;17.73;;
4174;SDS011;2101;48.290;14.382;2022-10-28T04:37:35;476.07;;;15.00;;
4174;SDS011;2101;48.290;14.382;2022-10-28T04:40:01;284.47;;;10.83;;
4174;SDS011;2101;48.290;14.382;2022-10-28T04:42:27;516.07;;;18.47;;
4174;SDS011;2101;48.290;14.382;2022-10-28T04:44:53;157.70;;;9.00;;
4174;SDS011;2101;48.290;14.382;2022-10-28T04:47:19;546.67;;;17.83;;
4174;SDS011;2101;48.290;14.382;2022-10-28T04:49:46;174.40;;;6.67;;
4174;SDS011;2101;48.290;14.382;2022-10-28T04:52:12;477.23;;;15.50;;
4174;SDS011;2101;48.290;14.382;2022-10-28T04:54:38;538.83;;;16.97;;
4174;SDS011;2101;48.290;14.382;2022-10-28T04:57:05;156.53;;;8.60;;
4174;SDS011;2101;48.290;14.382;2022-10-28T04:59:31;326.47;;;12.60;;
4174;SDS011;2101;48.290;14.382;2022-10-28T05:01:57;129.60;;;9.33;;
4174;SDS011;2101;48.290;14.382;2022-10-28T05:04:23;478.83;;;18.10;;
4174;SDS011;2101;48.290;14.382;2022-10-28T05:06:49;162.67;;;9.80;;
4174;SDS011;2101;48.290;14.382;2022-10-28T05:09:15;462.67;;;15.53;;
4174;SDS011;2101;48.290;14.382;2022-10-28T05:11:41;570.43;;;18.17;;
4174;SDS011;2101;48.290;14.382;2022-10-28T05:14:07;601.13;;;19.87;;
4174;SDS011;2101;48.290;14.382;2022-10-28T05:16:33;174.67;;;8.57;;
4174;SDS011;2101;48.290;14.382;2022-10-28T05:18:59;287.73;;;10.63;;
4174;SDS011;2101;48.290;14.382;2022-10-28T05:21:25;257.70;;;10.37;;
4174;SDS011;2101;48.290;14.382;2022-10-28T05:23:52;636.73;;;23.53;;
4174;SDS011;2101;48.290;14.382;2022-10-28T05:26:18;476.73;;;18.20;;
4174;SDS011;2101;48.290;14.382;2022-10-28T05:28:47;408.60;;;15.33;;
4174;SDS011;2101;48.290;14.382;2022-10-28T05:31:14;165.40;;;7.10;;
4174;SDS011;2101;48.290;14.382;2022-10-28T05:33:40;347.97;;;10.80;;
4174;SDS011;2101;48.290;14.382;2022-10-28T05:36:06;387.60;;;11.67;;
4174;SDS011;2101;48.290;14.382;2022-10-28T05:38:32;299.37;;;9.13;;
4174;SDS011;2101;48.290;14.382;2022-10-28T05:40:58;323.23;;;11.47;;
4174;SDS011;2101;48.290;14.382;2022-10-28T05:43:24;216.73;;;7.60;;
4174;SDS011;2101;48.290;14.382;2022-10-28T05:45:54;148.80;;;6.67;;
4174;SDS011;2101;48.290;14.382;2022-10-28T05:48:20;188.23;;;7.63;;
4174;SDS011;2101;48.290;14.382;2022-10-28T05:50:47;213.47;;;12.27;;
4174;SDS011;2101;48.290;14.382;2022-10-28T05:53:13;147.03;;;7.93;;
4174;SDS011;2101;48.290;14.382;2022-10-28T05:55:39;199.30;;;8.77;;
4174;SDS011;2101;48.290;14.382;2022-10-28T05:58:14;123.53;;;6.50;;
4174;SDS011;2101;48.290;14.382;2022-10-28T06:00:41;90.10;;;5.47;;
4174;SDS011;2101;48.290;14.382;2022-10-28T06:03:09;106.70;;;5.53;;
4174;SDS011;2101;48.290;14.382;2022-10-28T06:05:36;168.57;;;6.60;;
4174;SDS011;2101;48.290;14.382;2022-10-28T06:08:02;251.90;;;10.63;;
4174;SDS011;2101;48.290;14.382;2022-10-28T06:10:29;61.27;;;5.90;;
4174;SDS011;2101;48.290;14.382;2022-10-28T06:12:55;189.77;;;8.10;;
4174;SDS011;2101;48.290;14.382;2022-10-28T06:15:21;222.63;;;10.60;;
4174;SDS011;2101;48.290;14.382;2022-10-28T06:17:48;92.10;;;7.00;;
4174;SDS011;2101;48.290;14.382;2022-10-28T06:22:49;295.23;;;11.93;;
4174;SDS011;2101;48.290;14.382;2022-10-28T06:25:16;61.20;;;4.67;;
4174;SDS011;2101;48.290;14.382;2022-10-28T06:27:42;84.83;;;4.63;;
4174;SDS011;2101;48.290;14.382;2022-10-28T06:30:08;133.87;;;6.40;;
4174;SDS011;2101;48.290;14.382;2022-10-28T06:32:35;120.53;;;4.40;;
4174;SDS011;2101;48.290;14.382;2022-10-28T06:35:01;182.33;;;6.47;;
4174;SDS011;2101;48.290;14.382;2022-10-28T06:37:27;156.77;;;6.23;;
4174;SDS011;2101;48.290;14.382;2022-10-28T06:39:53;312.90;;;11.17;;
4174;SDS011;2101;48.290;14.382;2022-10-28T06:42:20;259.70;;;10.90;;
4174;SDS011;2101;48.290;14.382;2022-10-28T06:44:46;179.13;;;8.77;;
4174;SDS011;2101;48.290;14.382;2022-10-28T06:47:13;118.90;;;6.37;;
4174;SDS011;2101;48.290;14.382;2022-10-28T06:49:39;285.03;;;8.33;;
4174;SDS011;2101;48.290;14.382;2022-10-28T06:52:05;141.37;;;6.10;;
4174;SDS011;2101;48.290;14.382;2022-10-28T06:54:31;118.87;;;5.93;;
4174;SDS011;2101;48.290;14.382;2022-10-28T06:56:57;215.17;;;9.10;;
4174;SDS011;2101;48.290;14.382;2022-10-28T06:59:23;41.00;;;4.23;;
4174;SDS011;2101;48.290;14.382;2022-10-28T07:01:49;126.33;;;7.37;;
4174;SDS011;2101;48.290;14.382;2022-10-28T07:04:15;374.87;;;12.10;;
4174;SDS011;2101;48.290;14.382;2022-10-28T07:06:42;149.27;;;6.20;;
4174;SDS011;2101;48.290;14.382;2022-10-28T07:09:08;55.37;;;4.47;;
4174;SDS011;2101;48.290;14.382;2022-10-28T07:11:35;79.67;;;6.97;;
4174;SDS011;2101;48.290;14.382;2022-10-28T07:14:01;159.07;;;9.77;;
4174;SDS011;2101;48.290;14.382;2022-10-28T07:16:28;312.77;;;9.17;;
4174;SDS011;2101;48.290;14.382;2022-10-28T07:18:54;229.80;;;8.07;;
4174;SDS011;2101;48.290;14.382;2022-10-28T07:21:20;136.33;;;5.70;;
4174;SDS011;2101;48.290;14.382;2022-10-28T07:23:49;132.83;;;5.60;;
4174;SDS011;2101;48.290;14.382;2022-10-28T07:26:15;199.63;;;7.13;;
4174;SDS011;2101;48.290;14.382;2022-10-28T07:28:41;72.53;;;5.60;;
4174;SDS011;2101;48.290;14.382;2022-10-28T07:31:07;69.03;;;4.93;;
4174;SDS011;2101;48.290;14.382;2022-10-28T07:33:34;106.93;;;4.50;;
4174;SDS011;2101;48.290;14.382;2022-10-28T07:36:01;83.70;;;4.83;;
4174;SDS011;2101;48.290;14.382;2022-10-28T07:38:27;98.00;;;4.00;;
4174;SDS011;2101;48.290;14.382;2022-10-28T07:40:53;154.53;;;6.30;;
4174;SDS011;2101;48.290;14.382;2022-10-28T07:43:19;201.00;;;6.17;;
4174;SDS011;2101;48.290;14.382;2022-10-28T07:45:46;83.30;;;4.83;;
4174;SDS011;2101;48.290;14.382;2022-10-28T07:48:12;120.33;;;4.87;;
4174;SDS011;2101;48.290;14.382;2022-10-28T07:50:39;164.90;;;6.70;;
4174;SDS011;2101;48.290;14.382;2022-10-28T07:53:05;172.60;;;6.57;;
4174;SDS011;2101;48.290;14.382;2022-10-28T07:55:31;128.53;;;4.90;;
4174;SDS011;2101;48.290;14.382;2022-10-28T07:57:57;163.27;;;5.47;;
4174;SDS011;2101;48.290;14.382;2022-10-28T08:00:23;120.10;;;4.13;;
4174;SDS011;2101;48.290;14.382;2022-10-28T08:02:49;335.23;;;10.07;;
4174;SDS011;2101;48.290;14.382;2022-10-28T08:05:16;86.37;;;4.77;;
4174;SDS011;2101;48.290;14.382;2022-10-28T08:07:42;70.17;;;3.43;;
4174;SDS011;2101;48.290;14.382;2022-10-28T08:10:08;39.90;;;3.20;;
4174;SDS011;2101;48.290;14.382;2022-10-28T08:12:34;103.80;;;4.33;;
4174;SDS011;2101;48.290;14.382;2022-10-28T08:15:00;45.70;;;4.77;;
4174;SDS011;2101;48.290;14.382;2022-10-28T08:17:26;124.30;;;5.47;;
4174;SDS011;2101;48.290;14.382;2022-10-28T08:19:53;67.40;;;5.00;;
4174;SDS011;2101;48.290;14.382;2022-10-28T08:22:19;47.90;;;3.37;;
4174;SDS011;2101;48.290;14.382;2022-10-28T08:24:45;70.70;;;4.20;;
4174;SDS011;2101;48.290;14.382;2022-10-28T08:27:11;112.50;;;6.53;;
4174;SDS011;2101;48.290;14.382;2022-10-28T08:29:37;88.43;;;4.90;;
4174;SDS011;2101;48.290;14.382;2022-10-28T08:32:06;264.77;;;9.80;;
4174;SDS011;2101;48.290;14.382;2022-10-28T08:34:32;57.13;;;4.70;;
4174;SDS011;2101;48.290;14.382;2022-10-28T08:36:58;202.57;;;8.30;;
4174;SDS011;2101;48.290;14.382;2022-10-28T08:39:24;88.90;;;6.37;;
4174;SDS011;2101;48.290;14.382;2022-10-28T08:41:53;123.50;;;5.33;;
4174;SDS011;2101;48.290;14.382;2022-10-28T08:49:42;38.50;;;3.90;;
4174;SDS011;2101;48.290;14.382;2022-10-28T08:52:21;84.67;;;5.40;;
4174;SDS011;2101;48.290;14.382;2022-10-28T08:54:54;110.33;;;6.33;;
4174;SDS011;2101;48.290;14.382;2022-10-28T09:00:33;60.20;;;5.30;;
4174;SDS011;2101;48.290;14.382;2022-10-28T09:05:25;42.57;;;3.93;;
4174;SDS011;2101;48.290;14.382;2022-10-28T09:07:51;117.53;;;6.63;;
4174;SDS011;2101;48.290;14.382;2022-10-28T09:11:05;124.07;;;5.40;;
4174;SDS011;2101;48.290;14.382;2022-10-28T09:13:09;61.33;;;4.37;;
4174;SDS011;2101;48.290;14.382;2022-10-28T09:21:08;23.80;;;4.50;;
4174;SDS011;2101;48.290;14.382;2022-10-28T09:23:49;214.73;;;7.80;;
4174;SDS011;2101;48.290;14.382;2022-10-28T09:36:22;53.50;;;5.73;;
4174;SDS011;2101;48.290;14.382;2022-10-28T09:38:50;42.83;;;3.93;;
4174;SDS011;2101;48.290;14.382;2022-10-28T09:41:20;17.40;;;3.97;;
4174;SDS011;2101;48.290;14.382;2022-10-28T09:43:49;27.43;;;4.30;;
4174;SDS011;2101;48.290;14.382;2022-10-28T09:46:17;29.23;;;4.90;;
4174;SDS011;2101;48.290;14.382;2022-10-28T09:48:47;43.83;;;5.00;;
4174;SDS011;2101;48.290;14.382;2022-10-28T09:51:20;92.27;;;6.50;;
4174;SDS011;2101;48.290;14.382;2022-10-28T09:53:55;183.60;;;10.17;;
4174;SDS011;2101;48.290;14.382;2022-10-28T09:56:22;30.97;;;5.20;;
4174;SDS011;2101;48.290;14.382;2022-10-28T09:58:48;46.93;;;5.50;;
4174;SDS011;2101;48.290;14.382;2022-10-28T10:01:17;59.00;;;4.70;;
4174;SDS011;2101;48.290;14.382;2022-10-28T10:03:46;36.40;;;4.90;;
4174;SDS011;2101;48.290;14.382;2022-10-28T10:06:31;96.13;;;7.00;;
4174;SDS011;2101;48.290;14.382;2022-10-28T10:08:58;76.70;;;6.50;;
4174;SDS011;2101;48.290;14.382;2022-10-28T10:11:39;18.87;;;4.40;;
4174;SDS011;2101;48.290;14.382;2022-10-28T10:14:11;42.37;;;4.43;;
4174;SDS011;2101;48.290;14.382;2022-10-28T10:16:39;29.33;;;4.27;;
4174;SDS011;2101;48.290;14.382;2022-10-28T10:19:06;18.93;;;4.70;;
4174;SDS011;2101;48.290;14.382;2022-10-28T10:21:42;77.63;;;6.03;;
4174;SDS011;2101;48.290;14.382;2022-10-28T10:24:46;21.07;;;4.40;;
4174;SDS011;2101;48.290;14.382;2022-10-28T10:29:34;18.93;;;3.83;;
4174;SDS011;2101;48.290;14.382;2022-10-28T10:32:17;20.10;;;5.00;;
4174;SDS011;2101;48.290;14.382;2022-10-28T10:34:45;21.33;;;5.37;;
4174;SDS011;2101;48.290;14.382;2022-10-28T10:37:16;22.10;;;5.57;;
4174;SDS011;2101;48.290;14.382;2022-10-28T10:39:43;21.70;;;4.73;;
4174;SDS011;2101;48.290;14.382;2022-10-28T10:42:16;24.03;;;5.70;;
4174;SDS011;2101;48.290;14.382;2022-10-28T10:44:42;25.13;;;4.90;;
4174;SDS011;2101;48.290;14.382;2022-10-28T10:49:34;18.77;;;4.27;;
4174;SDS011;2101;48.290;14.382;2022-10-28T10:52:01;19.70;;;4.73;;
4174;SDS011;2101;48.290;14.382;2022-10-28T10:54:29;19.80;;;5.90;;
4174;SDS011;2101;48.290;14.382;2022-10-28T10:57:07;22.13;;;6.10;;
4174;SDS011;2101;48.290;14.382;2022-10-28T10:59:33;27.87;;;5.33;;
4174;SDS011;2101;48.290;14.382;2022-10-28T11:02:01;26.77;;;5.77;;
4174;SDS011;2101;48.290;14.382;2022-10-28T11:04:28;22.50;;;5.40;;
4174;SDS011;2101;48.290;14.382;2022-10-28T11:06:55;28.50;;;6.90;;
4174;SDS011;2101;48.290;14.382;2022-10-28T11:11:53;23.00;;;6.83;;
4174;SDS011;2101;48.290;14.382;2022-10-28T11:14:25;23.27;;;5.60;;
4174;SDS011;2101;48.290;14.382;2022-10-28T11:16:57;23.93;;;5.90;;
4174;SDS011;2101;48.290;14.382;2022-10-28T11:19:32;22.70;;;5.40;;
4174;SDS011;2101;48.290;14.382;2022-10-28T11:27:40;22.10;;;4.83;;
4174;SDS011;2101;48.290;14.382;2022-10-28T11:30:14;89.20;;;7.40;;
4174;SDS011;2101;48.290;14.382;2022-10-28T11:35:22;38.63;;;7.03;;
4174;SDS011;2101;48.290;14.382;2022-10-28T11:40:43;34.20;;;7.20;;
4174;SDS011;2101;48.290;14.382;2022-10-28T11:43:16;48.87;;;7.90;;
4174;SDS011;2101;48.290;14.382;2022-10-28T11:56:02;23.20;;;5.90;;
4174;SDS011;2101;48.290;14.382;2022-10-28T12:14:26;26.73;;;7.30;;
4174;SDS011;2101;48.290;14.382;2022-10-28T12:22:39;26.97;;;7.30;;
4174;SDS011;2101;48.290;14.382;2022-10-28T12:25:12;23.03;;;6.80;;
4174;SDS011;2101;48.290;14.382;2022-10-28T12:27:39;21.60;;;6.40;;
4174;SDS011;2101;48.290;14.382;2022-10-28T12:30:28;23.70;;;7.10;;
4174;SDS011;2101;48.290;14.382;2022-10-28T12:33:01;25.17;;;7.73;;
4174;SDS011;2101;48.290;14.382;2022-10-28T12:35:30;33.40;;;8.03;;
4174;SDS011;2101;48.290;14.382;2022-10-28T12:40:30;24.43;;;7.13;;
4174;SDS011;2101;48.290;14.382;2022-10-28T12:43:10;115.90;;;9.37;;
4174;SDS011;2101;48.290;14.382;2022-10-28T12:45:39;29.83;;;7.27;;
4174;SDS011;2101;48.290;14.382;2022-10-28T12:50:45;36.77;;;8.40;;
4174;SDS011;2101;48.290;14.382;2022-10-28T12:53:31;24.63;;;7.17;;
4174;SDS011;2101;48.290;14.382;2022-10-28T12:56:00;23.70;;;6.40;;
4174;SDS011;2101;48.290;14.382;2022-10-28T13:00:56;24.17;;;7.27;;
4174;SDS011;2101;48.290;14.382;2022-10-28T13:03:25;23.53;;;6.83;;
4174;SDS011;2101;48.290;14.382;2022-10-28T13:24:11;30.33;;;8.00;;
4174;SDS011;2101;48.290;14.382;2022-10-28T13:26:41;38.13;;;8.63;;
4174;SDS011;2101;48.290;14.382;2022-10-28T13:29:19;23.23;;;6.73;;
4174;SDS011;2101;48.290;14.382;2022-10-28T13:31:46;26.53;;;8.60;;
4174;SDS011;2101;48.290;14.382;2022-10-28T13:34:13;36.00;;;8.60;;
4174;SDS011;2101;48.290;14.382;2022-10-28T13:36:41;24.43;;;7.23;;
4174;SDS011;2101;48.290;14.382;2022-10-28T13:39:27;26.03;;;8.73;;
4174;SDS011;2101;48.290;14.382;2022-10-28T13:50:15;28.10;;;7.77;;
4174;SDS011;2101;48.290;14.382;2022-10-28T13:52:36;25.97;;;7.27;;
4174;SDS011;2101;48.290;14.382;2022-10-28T13:57:58;27.50;;;8.30;;
4174;SDS011;2101;48.290;14.382;2022-10-28T14:02:58;24.97;;;6.87;;
4174;SDS011;2101;48.290;14.382;2022-10-28T14:07:58;31.50;;;8.03;;
4174;SDS011;2101;48.290;14.382;2022-10-28T14:12:53;24.77;;;7.23;;
4174;SDS011;2101;48.290;14.382;2022-10-28T14:15:24;26.83;;;7.40;;
4174;SDS011;2101;48.290;14.382;2022-10-28T14:17:52;23.63;;;7.40;;
4174;SDS011;2101;48.290;14.382;2022-10-28T14:20:21;25.93;;;6.70;;
4174;SDS011;2101;48.290;14.382;2022-10-28T14:22:48;23.93;;;6.47;;
4174;SDS011;2101;48.290;14.382;2022-10-28T14:28:00;30.13;;;8.13;;
4174;SDS011;2101;48.290;14.382;2022-10-28T14:30:26;25.93;;;7.47;;
4174;SDS011;2101;48.290;14.382;2022-10-28T14:32:56;29.87;;;7.47;;
4174;SDS011;2101;48.290;14.382;2022-10-28T14:35:45;41.13;;;7.37;;
4174;SDS011;2101;48.290;14.382;2022-10-28T14:40:50;27.13;;;7.77;;
4174;SDS011;2101;48.290;14.382;2022-10-28T14:50:47;26.23;;;7.70;;
4174;SDS011;2101;48.290;14.382;2022-10-28T14:53:28;23.33;;;6.60;;
4174;SDS011;2101;48.290;14.382;2022-10-28T14:56:02;29.20;;;8.33;;
4174;SDS011;2101;48.290;14.382;2022-10-28T14:58:35;24.50;;;8.10;;
4174;SDS011;2101;48.290;14.382;2022-10-28T15:01:19;27.90;;;8.47;;
4174;SDS011;2101;48.290;14.382;2022-10-28T15:03:47;26.20;;;7.80;;
4174;SDS011;2101;48.290;14.382;2022-10-28T15:09:17;27.33;;;7.47;;
4174;SDS011;2101;48.290;14.382;2022-10-28T15:11:45;29.00;;;7.60;;
4174;SDS011;2101;48.290;14.382;2022-10-28T15:14:21;25.17;;;8.00;;
4174;SDS011;2101;48.290;14.382;2022-10-28T15:16:48;30.10;;;7.47;;
4174;SDS011;2101;48.290;14.382;2022-10-28T15:19:16;23.80;;;7.10;;
4174;SDS011;2101;48.290;14.382;2022-10-28T15:21:43;24.17;;;6.77;;
4174;SDS011;2101;48.290;14.382;2022-10-28T15:24:12;21.97;;;6.60;;
4174;SDS011;2101;48.290;14.382;2022-10-28T15:26:38;24.00;;;6.70;;
4174;SDS011;2101;48.290;14.382;2022-10-28T15:29:04;21.43;;;5.80;;
4174;SDS011;2101;48.290;14.382;2022-10-28T15:31:31;27.43;;;5.57;;
4174;SDS011;2101;48.290;14.382;2022-10-28T15:33:57;23.47;;;6.23;;
4174;SDS011;2101;48.290;14.382;2022-10-28T15:36:23;25.00;;;6.43;;
4174;SDS011;2101;48.290;14.382;2022-10-28T15:38:51;22.20;;;6.47;;
4174;SDS011;2101;48.290;14.382;2022-10-28T15:44:31;22.17;;;6.37;;
4174;SDS011;2101;48.290;14.382;2022-10-28T15:46:59;20.50;;;6.00;;
4174;SDS011;2101;48.290;14.382;2022-10-28T15:49:32;23.63;;;6.37;;
4174;SDS011;2101;48.290;14.382;2022-10-28T15:54:54;23.20;;;6.80;;
4174;SDS011;2101;48.290;14.382;2022-10-28T15:57:22;27.60;;;7.47;;
4174;SDS011;2101;48.290;14.382;2022-10-28T16:00:05;29.97;;;7.80;;
4174;SDS011;2101;48.290;14.382;2022-10-28T16:02:40;27.77;;;6.33;;
4174;SDS011;2101;48.290;14.382;2022-10-28T16:07:54;22.03;;;6.10;;
4174;SDS011;2101;48.290;14.382;2022-10-28T16:10:21;28.70;;;7.23;;
4174;SDS011;2101;48.290;14.382;2022-10-28T16:12:47;25.73;;;6.90;;
4174;SDS011;2101;48.290;14.382;2022-10-28T16:15:13;24.17;;;6.73;;
4174;SDS011;2101;48.290;14.382;2022-10-28T16:17:41;25.77;;;7.17;;
4174;SDS011;2101;48.290;14.382;2022-10-28T16:22:34;36.77;;;11.13;;
4174;SDS011;2101;48.290;14.382;2022-10-28T16:25:04;48.27;;;11.50;;
4174;SDS011;2101;48.290;14.382;2022-10-28T16:27:30;39.43;;;11.27;;
4174;SDS011;2101;48.290;14.382;2022-10-28T16:29:58;57.60;;;19.20;;
4174;SDS011;2101;48.290;14.382;2022-10-28T16:32:31;48.33;;;10.40;;
4174;SDS011;2101;48.290;14.382;2022-10-28T16:34:59;24.73;;;7.10;;
4174;SDS011;2101;48.290;14.382;2022-10-28T16:37:26;25.20;;;6.87;;
4174;SDS011;2101;48.290;14.382;2022-10-28T16:39:52;28.30;;;8.10;;
4174;SDS011;2101;48.290;14.382;2022-10-28T16:42:19;28.97;;;8.10;;
4174;SDS011;2101;48.290;14.382;2022-10-28T16:44:46;27.03;;;8.60;;
4174;SDS011;2101;48.290;14.382;2022-10-28T16:47:16;23.63;;;6.70;;
4174;SDS011;2101;48.290;14.382;2022-10-28T16:49:43;23.57;;;6.77;;
4174;SDS011;2101;48.290;14.382;2022-10-28T16:52:17;26.07;;;8.27;;
4174;SDS011;2101;48.290;14.382;2022-10-28T16:54:46;22.60;;;6.50;;
4174;SDS011;2101;48.290;14.382;2022-10-28T16:57:13;25.50;;;6.83;;
4174;SDS011;2101;48.290;14.382;2022-10-28T16:59:39;25.10;;;6.60;;
4174;SDS011;2101;48.290;14.382;2022-10-28T17:02:12;23.50;;;5.80;;
4174;SDS011;2101;48.290;14.382;2022-10-28T17:04:39;21.07;;;4.93;;
4174;SDS011;2101;48.290;14.382;2022-10-28T17:07:08;25.30;;;5.87;;
4174;SDS011;2101;48.290;14.382;2022-10-28T17:09:41;23.67;;;5.50;;
4174;SDS011;2101;48.290;14.382;2022-10-28T17:12:14;28.40;;;5.27;;
4174;SDS011;2101;48.290;14.382;2022-10-28T17:14:43;22.33;;;6.30;;
4174;SDS011;2101;48.290;14.382;2022-10-28T17:17:09;24.70;;;7.47;;
4174;SDS011;2101;48.290;14.382;2022-10-28T17:19:36;20.97;;;5.97;;
4174;SDS011;2101;48.290;14.382;2022-10-28T17:22:03;20.23;;;5.93;;
4174;SDS011;2101;48.290;14.382;2022-10-28T17:24:29;27.17;;;6.73;;
4174;SDS011;2101;48.290;14.382;2022-10-28T17:26:55;23.40;;;6.80;;
4174;SDS011;2101;48.290;14.382;2022-10-28T17:29:21;26.63;;;7.00;;
4174;SDS011;2101;48.290;14.382;2022-10-28T17:31:49;30.27;;;7.77;;
4174;SDS011;2101;48.290;14.382;2022-10-28T17:34:15;43.60;;;10.10;;
4174;SDS011;2101;48.290;14.382;2022-10-28T17:36:42;38.03;;;9.73;;
4174;SDS011;2101;48.290;14.382;2022-10-28T17:39:08;38.27;;;9.80;;
4174;SDS011;2101;48.290;14.382;2022-10-28T17:41:35;32.33;;;8.73;;
4174;SDS011;2101;48.290;14.382;2022-10-28T17:44:03;29.87;;;6.90;;
4174;SDS011;2101;48.290;14.382;2022-10-28T17:46:29;25.87;;;7.80;;
4174;SDS011;2101;48.290;14.382;2022-10-28T17:48:55;60.80;;;26.70;;
4174;SDS011;2101;48.290;14.382;2022-10-28T17:51:24;24.00;;;6.70;;
4174;SDS011;2101;48.290;14.382;2022-10-28T17:53:54;42.67;;;11.90;;
4174;SDS011;2101;48.290;14.382;2022-10-28T17:56:21;27.80;;;7.33;;
4174;SDS011;2101;48.290;14.382;2022-10-28T17:58:50;28.20;;;8.33;;
4174;SDS011;2101;48.290;14.382;2022-10-28T18:01:19;24.80;;;7.90;;
4174;SDS011;2101;48.290;14.382;2022-10-28T18:03:49;24.20;;;7.53;;